sensor_id;sensor_type;location;lat;lon;timestamp;P1;durP1;ratioP1;P2;durP2;ratioP2
55025;SDS011;40925;45.666;18.994;2023-03-01T00:01:29;108.80;;;41.50;;
55025;SDS011;40925;45.666;18.994;2023-03-01T00:03:56;260.35;;;60.33;;
55025;SDS011;40925;45.666;18.994;2023-03-01T00:06:24;90.93;;;35.60;;
55025;SDS011;40925;45.666;18.994;2023-03-01T00:08:50;93.43;;;37.33;;
55025;SDS011;40925;45.666;18.994;2023-03-01T00:11:17;94.32;;;34.08;;
55025;SDS011;40925;45.666;18.994;2023-03-01T00:13:45;84.32;;;34.67;;
55025;SDS011;40925;45.666;18.994;2023-03-01T00:16:13;84.25;;;35.50;;
55025;SDS011;40925;45.666;18.994;2023-03-01T00:18:44;156.63;;;66.97;;
55025;SDS011;40925;45.666;18.994;2023-03-01T00:21:10;143.45;;;60.42;;
55025;SDS011;40925;45.666;18.994;2023-03-01T00:23:36;113.95;;;45.67;;
55025;SDS011;40925;45.666;18.994;2023-03-01T00:26:05;102.93;;;39.78;;
55025;SDS011;40925;45.666;18.994;2023-03-01T00:28:32;109.72;;;43.83;;
55025;SDS011;40925;45.666;18.994;2023-03-01T00:31:08;122.72;;;56.05;;
55025;SDS011;40925;45.666;18.994;2023-03-01T00:33:35;141.02;;;64.70;;
55025;SDS011;40925;45.666;18.994;2023-03-01T00:36:02;141.90;;;65.07;;
55025;SDS011;40925;45.666;18.994;2023-03-01T00:38:44;139.35;;;67.40;;
55025;SDS011;40925;45.666;18.994;2023-03-01T00:41:12;153.65;;;73.22;;
55025;SDS011;40925;45.666;18.994;2023-03-01T00:43:40;136.20;;;65.15;;
55025;SDS011;40925;45.666;18.994;2023-03-01T00:46:09;98.38;;;40.90;;
55025;SDS011;40925;45.666;18.994;2023-03-01T00:48:40;86.93;;;37.13;;
55025;SDS011;40925;45.666;18.994;2023-03-01T00:51:20;90.57;;;38.75;;
55025;SDS011;40925;45.666;18.994;2023-03-01T00:53:49;94.00;;;39.22;;
55025;SDS011;40925;45.666;18.994;2023-03-01T00:56:16;86.57;;;36.67;;
55025;SDS011;40925;45.666;18.994;2023-03-01T00:58:42;84.22;;;33.55;;
55025;SDS011;40925;45.666;18.994;2023-03-01T01:01:29;79.95;;;32.67;;
55025;SDS011;40925;45.666;18.994;2023-03-01T01:04:03;80.32;;;30.77;;
55025;SDS011;40925;45.666;18.994;2023-03-01T01:06:32;77.78;;;29.73;;
55025;SDS011;40925;45.666;18.994;2023-03-01T01:09:00;78.07;;;30.25;;
55025;SDS011;40925;45.666;18.994;2023-03-01T01:11:26;76.80;;;29.40;;
55025;SDS011;40925;45.666;18.994;2023-03-01T01:13:54;95.22;;;34.65;;
55025;SDS011;40925;45.666;18.994;2023-03-01T01:16:20;127.18;;;38.15;;
55025;SDS011;40925;45.666;18.994;2023-03-01T01:18:47;130.52;;;38.75;;
55025;SDS011;40925;45.666;18.994;2023-03-01T01:21:16;255.65;;;44.75;;
55025;SDS011;40925;45.666;18.994;2023-03-01T01:23:45;134.23;;;39.85;;
55025;SDS011;40925;45.666;18.994;2023-03-01T01:26:16;191.40;;;46.88;;
55025;SDS011;40925;45.666;18.994;2023-03-01T01:28:44;192.32;;;47.75;;
55025;SDS011;40925;45.666;18.994;2023-03-01T01:31:10;120.85;;;40.78;;
55025;SDS011;40925;45.666;18.994;2023-03-01T01:33:36;92.70;;;35.08;;
55025;SDS011;40925;45.666;18.994;2023-03-01T01:36:03;113.95;;;39.78;;
55025;SDS011;40925;45.666;18.994;2023-03-01T01:38:30;114.68;;;39.70;;
55025;SDS011;40925;45.666;18.994;2023-03-01T01:40:55;127.65;;;42.65;;
55025;SDS011;40925;45.666;18.994;2023-03-01T01:43:23;102.38;;;39.15;;
55025;SDS011;40925;45.666;18.994;2023-03-01T01:45:51;88.43;;;33.20;;
55025;SDS011;40925;45.666;18.994;2023-03-01T01:48:24;82.35;;;31.65;;
55025;SDS011;40925;45.666;18.994;2023-03-01T01:51:05;88.78;;;35.17;;
55025;SDS011;40925;45.666;18.994;2023-03-01T01:53:36;106.68;;;36.05;;
55025;SDS011;40925;45.666;18.994;2023-03-01T01:56:03;174.10;;;41.67;;
55025;SDS011;40925;45.666;18.994;2023-03-01T01:58:33;108.13;;;39.40;;
55025;SDS011;40925;45.666;18.994;2023-03-01T02:01:00;89.05;;;33.03;;
55025;SDS011;40925;45.666;18.994;2023-03-01T02:03:29;87.53;;;32.30;;
55025;SDS011;40925;45.666;18.994;2023-03-01T02:06:12;93.60;;;34.92;;
55025;SDS011;40925;45.666;18.994;2023-03-01T02:08:57;87.43;;;32.05;;
55025;SDS011;40925;45.666;18.994;2023-03-01T02:11:25;84.60;;;32.38;;
55025;SDS011;40925;45.666;18.994;2023-03-01T02:13:52;96.53;;;33.72;;
55025;SDS011;40925;45.666;18.994;2023-03-01T02:16:19;84.40;;;32.10;;
55025;SDS011;40925;45.666;18.994;2023-03-01T02:18:46;80.45;;;30.65;;
55025;SDS011;40925;45.666;18.994;2023-03-01T02:23:56;78.47;;;31.08;;
55025;SDS011;40925;45.666;18.994;2023-03-01T02:26:36;87.70;;;31.75;;
55025;SDS011;40925;45.666;18.994;2023-03-01T02:29:11;83.43;;;31.88;;
55025;SDS011;40925;45.666;18.994;2023-03-01T02:31:37;75.88;;;29.73;;
55025;SDS011;40925;45.666;18.994;2023-03-01T02:34:16;74.75;;;30.08;;
55025;SDS011;40925;45.666;18.994;2023-03-01T02:36:53;80.68;;;30.50;;
55025;SDS011;40925;45.666;18.994;2023-03-01T02:39:27;69.57;;;29.45;;
55025;SDS011;40925;45.666;18.994;2023-03-01T02:41:57;77.47;;;30.23;;
55025;SDS011;40925;45.666;18.994;2023-03-01T02:44:25;74.95;;;30.63;;
55025;SDS011;40925;45.666;18.994;2023-03-01T02:46:51;69.35;;;28.52;;
55025;SDS011;40925;45.666;18.994;2023-03-01T02:57:21;83.43;;;30.45;;
55025;SDS011;40925;45.666;18.994;2023-03-01T02:59:48;71.82;;;29.42;;
55025;SDS011;40925;45.666;18.994;2023-03-01T03:02:19;78.80;;;31.38;;
55025;SDS011;40925;45.666;18.994;2023-03-01T03:05:05;83.20;;;31.10;;
55025;SDS011;40925;45.666;18.994;2023-03-01T03:07:36;79.38;;;31.83;;
55025;SDS011;40925;45.666;18.994;2023-03-01T03:10:04;85.95;;;32.00;;
55025;SDS011;40925;45.666;18.994;2023-03-01T03:12:32;85.32;;;33.30;;
55025;SDS011;40925;45.666;18.994;2023-03-01T03:14:57;101.97;;;35.90;;
55025;SDS011;40925;45.666;18.994;2023-03-01T03:17:23;103.45;;;35.72;;
55025;SDS011;40925;45.666;18.994;2023-03-01T03:19:49;91.75;;;34.88;;
55025;SDS011;40925;45.666;18.994;2023-03-01T03:22:14;97.57;;;35.90;;
55025;SDS011;40925;45.666;18.994;2023-03-01T03:24:40;99.38;;;38.25;;
55025;SDS011;40925;45.666;18.994;2023-03-01T03:27:06;115.13;;;40.65;;
55025;SDS011;40925;45.666;18.994;2023-03-01T03:29:32;145.95;;;49.80;;
55025;SDS011;40925;45.666;18.994;2023-03-01T03:31:58;287.92;;;68.32;;
55025;SDS011;40925;45.666;18.994;2023-03-01T03:34:24;78.90;;;30.67;;
55025;SDS011;40925;45.666;18.994;2023-03-01T03:36:56;73.65;;;30.08;;
55025;SDS011;40925;45.666;18.994;2023-03-01T03:39:24;80.67;;;31.07;;
55025;SDS011;40925;45.666;18.994;2023-03-01T03:41:53;79.78;;;33.58;;
55025;SDS011;40925;45.666;18.994;2023-03-01T03:44:20;87.18;;;33.25;;
55025;SDS011;40925;45.666;18.994;2023-03-01T03:46:46;135.00;;;46.50;;
55025;SDS011;40925;45.666;18.994;2023-03-01T03:49:12;78.32;;;30.70;;
55025;SDS011;40925;45.666;18.994;2023-03-01T03:51:37;68.47;;;30.20;;
55025;SDS011;40925;45.666;18.994;2023-03-01T03:54:03;73.22;;;29.88;;
55025;SDS011;40925;45.666;18.994;2023-03-01T03:56:29;67.70;;;29.60;;
55025;SDS011;40925;45.666;18.994;2023-03-01T03:58:54;71.97;;;29.48;;
55025;SDS011;40925;45.666;18.994;2023-03-01T04:01:20;70.65;;;28.92;;
55025;SDS011;40925;45.666;18.994;2023-03-01T04:03:46;60.42;;;27.42;;
55025;SDS011;40925;45.666;18.994;2023-03-01T04:06:12;65.30;;;27.50;;
55025;SDS011;40925;45.666;18.994;2023-03-01T04:08:39;61.03;;;27.15;;
55025;SDS011;40925;45.666;18.994;2023-03-01T04:11:06;59.22;;;26.88;;
55025;SDS011;40925;45.666;18.994;2023-03-01T04:13:51;62.05;;;27.42;;
55025;SDS011;40925;45.666;18.994;2023-03-01T04:16:18;62.53;;;27.20;;
55025;SDS011;40925;45.666;18.994;2023-03-01T04:18:44;61.20;;;26.42;;
55025;SDS011;40925;45.666;18.994;2023-03-01T04:21:10;61.80;;;27.38;;
55025;SDS011;40925;45.666;18.994;2023-03-01T04:23:36;61.25;;;27.10;;
55025;SDS011;40925;45.666;18.994;2023-03-01T04:26:02;60.28;;;27.13;;
55025;SDS011;40925;45.666;18.994;2023-03-01T04:28:30;60.72;;;27.00;;
55025;SDS011;40925;45.666;18.994;2023-03-01T04:31:09;57.63;;;26.58;;
55025;SDS011;40925;45.666;18.994;2023-03-01T04:33:41;60.92;;;27.10;;
55025;SDS011;40925;45.666;18.994;2023-03-01T04:36:08;59.42;;;26.40;;
55025;SDS011;40925;45.666;18.994;2023-03-01T04:38:35;59.80;;;25.77;;
55025;SDS011;40925;45.666;18.994;2023-03-01T04:41:03;57.45;;;26.80;;
55025;SDS011;40925;45.666;18.994;2023-03-01T04:43:30;60.70;;;26.85;;
55025;SDS011;40925;45.666;18.994;2023-03-01T04:46:00;54.60;;;26.38;;
55025;SDS011;40925;45.666;18.994;2023-03-01T04:48:28;60.42;;;25.98;;
55025;SDS011;40925;45.666;18.994;2023-03-01T04:50:54;56.30;;;25.58;;
55025;SDS011;40925;45.666;18.994;2023-03-01T04:53:19;56.40;;;25.38;;
55025;SDS011;40925;45.666;18.994;2023-03-01T04:55:45;55.60;;;25.58;;
55025;SDS011;40925;45.666;18.994;2023-03-01T04:58:11;58.08;;;26.20;;
55025;SDS011;40925;45.666;18.994;2023-03-01T05:00:37;55.42;;;25.85;;
55025;SDS011;40925;45.666;18.994;2023-03-01T05:03:02;65.18;;;31.00;;
55025;SDS011;40925;45.666;18.994;2023-03-01T05:05:35;73.28;;;32.63;;
55025;SDS011;40925;45.666;18.994;2023-03-01T05:08:03;69.78;;;31.75;;
55025;SDS011;40925;45.666;18.994;2023-03-01T05:10:32;85.15;;;37.75;;
55025;SDS011;40925;45.666;18.994;2023-03-01T05:13:00;103.32;;;44.75;;
55025;SDS011;40925;45.666;18.994;2023-03-01T05:15:28;82.28;;;37.30;;
55025;SDS011;40925;45.666;18.994;2023-03-01T05:17:56;79.40;;;36.95;;
55025;SDS011;40925;45.666;18.994;2023-03-01T05:20:26;90.32;;;42.33;;
55025;SDS011;40925;45.666;18.994;2023-03-01T05:22:54;80.43;;;39.28;;
55025;SDS011;40925;45.666;18.994;2023-03-01T05:25:23;59.85;;;27.70;;
55025;SDS011;40925;45.666;18.994;2023-03-01T05:27:50;56.30;;;25.98;;
55025;SDS011;40925;45.666;18.994;2023-03-01T05:30:16;61.47;;;27.90;;
55025;SDS011;40925;45.666;18.994;2023-03-01T05:32:44;59.58;;;28.85;;
55025;SDS011;40925;45.666;18.994;2023-03-01T05:35:14;72.97;;;34.75;;
55025;SDS011;40925;45.666;18.994;2023-03-01T05:37:42;94.40;;;43.15;;
55025;SDS011;40925;45.666;18.994;2023-03-01T05:43:10;61.58;;;28.17;;
55025;SDS011;40925;45.666;18.994;2023-03-01T05:45:37;57.30;;;27.20;;
55025;SDS011;40925;45.666;18.994;2023-03-01T05:48:04;58.13;;;27.27;;
55025;SDS011;40925;45.666;18.994;2023-03-01T05:50:35;58.92;;;27.08;;
55025;SDS011;40925;45.666;18.994;2023-03-01T05:53:03;55.95;;;26.08;;
55025;SDS011;40925;45.666;18.994;2023-03-01T05:55:30;60.78;;;28.90;;
55025;SDS011;40925;45.666;18.994;2023-03-01T05:58:07;54.72;;;26.50;;
55025;SDS011;40925;45.666;18.994;2023-03-01T06:00:35;55.88;;;25.35;;
55025;SDS011;40925;45.666;18.994;2023-03-01T06:03:01;56.38;;;27.25;;
55025;SDS011;40925;45.666;18.994;2023-03-01T06:05:28;76.55;;;36.58;;
55025;SDS011;40925;45.666;18.994;2023-03-01T06:07:54;70.30;;;33.53;;
55025;SDS011;40925;45.666;18.994;2023-03-01T06:13:36;75.20;;;35.35;;
55025;SDS011;40925;45.666;18.994;2023-03-01T06:16:04;57.67;;;28.10;;
55025;SDS011;40925;45.666;18.994;2023-03-01T06:18:31;51.38;;;25.15;;
55025;SDS011;40925;45.666;18.994;2023-03-01T06:20:56;56.15;;;26.92;;
55025;SDS011;40925;45.666;18.994;2023-03-01T06:23:22;53.05;;;26.27;;
55025;SDS011;40925;45.666;18.994;2023-03-01T06:25:48;57.30;;;27.48;;
55025;SDS011;40925;45.666;18.994;2023-03-01T06:28:14;54.97;;;27.80;;
55025;SDS011;40925;45.666;18.994;2023-03-01T06:30:40;65.05;;;31.35;;
55025;SDS011;40925;45.666;18.994;2023-03-01T06:33:06;58.95;;;29.25;;
55025;SDS011;40925;45.666;18.994;2023-03-01T06:35:31;56.85;;;28.75;;
55025;SDS011;40925;45.666;18.994;2023-03-01T06:37:58;67.93;;;33.65;;
55025;SDS011;40925;45.666;18.994;2023-03-01T06:40:25;70.97;;;35.65;;
55025;SDS011;40925;45.666;18.994;2023-03-01T06:42:51;63.95;;;33.38;;
55025;SDS011;40925;45.666;18.994;2023-03-01T06:45:18;58.47;;;30.13;;
55025;SDS011;40925;45.666;18.994;2023-03-01T06:47:44;56.70;;;28.58;;
55025;SDS011;40925;45.666;18.994;2023-03-01T06:50:11;58.33;;;28.48;;
55025;SDS011;40925;45.666;18.994;2023-03-01T06:52:37;63.20;;;32.33;;
55025;SDS011;40925;45.666;18.994;2023-03-01T06:55:04;58.53;;;29.77;;
55025;SDS011;40925;45.666;18.994;2023-03-01T06:57:30;56.05;;;29.13;;
55025;SDS011;40925;45.666;18.994;2023-03-01T06:59:56;59.72;;;30.15;;
55025;SDS011;40925;45.666;18.994;2023-03-01T07:02:22;64.75;;;32.83;;
55025;SDS011;40925;45.666;18.994;2023-03-01T07:04:49;62.65;;;32.08;;
55025;SDS011;40925;45.666;18.994;2023-03-01T07:07:15;62.20;;;31.52;;
55025;SDS011;40925;45.666;18.994;2023-03-01T07:09:43;78.05;;;37.65;;
55025;SDS011;40925;45.666;18.994;2023-03-01T07:12:09;80.47;;;39.60;;
55025;SDS011;40925;45.666;18.994;2023-03-01T07:14:35;71.75;;;35.72;;
55025;SDS011;40925;45.666;18.994;2023-03-01T07:17:01;88.22;;;44.72;;
55025;SDS011;40925;45.666;18.994;2023-03-01T07:19:27;91.57;;;45.72;;
55025;SDS011;40925;45.666;18.994;2023-03-01T07:21:53;87.15;;;45.40;;
55025;SDS011;40925;45.666;18.994;2023-03-01T07:24:20;76.55;;;39.88;;
55025;SDS011;40925;45.666;18.994;2023-03-01T07:26:49;83.78;;;41.75;;
55025;SDS011;40925;45.666;18.994;2023-03-01T07:29:16;87.55;;;43.63;;
55025;SDS011;40925;45.666;18.994;2023-03-01T07:31:41;82.68;;;40.00;;
55025;SDS011;40925;45.666;18.994;2023-03-01T07:34:08;83.43;;;40.80;;
55025;SDS011;40925;45.666;18.994;2023-03-01T07:36:33;102.10;;;48.88;;
55025;SDS011;40925;45.666;18.994;2023-03-01T07:38:59;91.53;;;45.78;;
55025;SDS011;40925;45.666;18.994;2023-03-01T07:41:27;67.50;;;35.20;;
55025;SDS011;40925;45.666;18.994;2023-03-01T07:43:53;69.60;;;35.60;;
55025;SDS011;40925;45.666;18.994;2023-03-01T07:46:18;70.38;;;35.78;;
55025;SDS011;40925;45.666;18.994;2023-03-01T07:48:44;66.47;;;34.38;;
55025;SDS011;40925;45.666;18.994;2023-03-01T07:51:10;68.60;;;33.85;;
55025;SDS011;40925;45.666;18.994;2023-03-01T07:53:36;67.68;;;34.13;;
55025;SDS011;40925;45.666;18.994;2023-03-01T07:58:38;71.22;;;36.67;;
55025;SDS011;40925;45.666;18.994;2023-03-01T08:01:06;64.75;;;32.97;;
55025;SDS011;40925;45.666;18.994;2023-03-01T08:03:34;64.40;;;31.08;;
55025;SDS011;40925;45.666;18.994;2023-03-01T08:06:01;63.40;;;32.65;;
55025;SDS011;40925;45.666;18.994;2023-03-01T08:08:30;61.17;;;31.60;;
55025;SDS011;40925;45.666;18.994;2023-03-01T08:10:57;64.07;;;32.83;;
55025;SDS011;40925;45.666;18.994;2023-03-01T08:13:24;76.45;;;36.75;;
55025;SDS011;40925;45.666;18.994;2023-03-01T08:15:50;74.60;;;39.63;;
55025;SDS011;40925;45.666;18.994;2023-03-01T08:18:17;66.50;;;34.50;;
55025;SDS011;40925;45.666;18.994;2023-03-01T08:20:43;83.70;;;38.40;;
55025;SDS011;40925;45.666;18.994;2023-03-01T08:23:09;95.05;;;42.42;;
55025;SDS011;40925;45.666;18.994;2023-03-01T08:25:35;94.55;;;41.13;;
55025;SDS011;40925;45.666;18.994;2023-03-01T08:33:47;57.63;;;28.98;;
55025;SDS011;40925;45.666;18.994;2023-03-01T08:36:16;69.50;;;35.35;;
55025;SDS011;40925;45.666;18.994;2023-03-01T08:38:42;68.30;;;34.80;;
55025;SDS011;40925;45.666;18.994;2023-03-01T08:41:09;82.97;;;44.92;;
55025;SDS011;40925;45.666;18.994;2023-03-01T08:43:34;74.85;;;42.00;;
55025;SDS011;40925;45.666;18.994;2023-03-01T08:46:00;59.17;;;33.30;;
55025;SDS011;40925;45.666;18.994;2023-03-01T08:48:27;60.42;;;32.28;;
55025;SDS011;40925;45.666;18.994;2023-03-01T08:50:53;64.78;;;35.10;;
55025;SDS011;40925;45.666;18.994;2023-03-01T08:53:19;77.68;;;41.15;;
55025;SDS011;40925;45.666;18.994;2023-03-01T08:55:45;69.40;;;36.78;;
55025;SDS011;40925;45.666;18.994;2023-03-01T08:58:25;73.60;;;37.08;;
55025;SDS011;40925;45.666;18.994;2023-03-01T09:00:51;62.28;;;31.13;;
55025;SDS011;40925;45.666;18.994;2023-03-01T09:03:17;58.13;;;30.33;;
55025;SDS011;40925;45.666;18.994;2023-03-01T09:05:42;58.70;;;31.85;;
55025;SDS011;40925;45.666;18.994;2023-03-01T09:08:10;73.63;;;36.95;;
55025;SDS011;40925;45.666;18.994;2023-03-01T09:10:39;93.65;;;41.78;;
55025;SDS011;40925;45.666;18.994;2023-03-01T09:16:08;60.20;;;31.85;;
55025;SDS011;40925;45.666;18.994;2023-03-01T09:18:35;56.75;;;30.23;;
55025;SDS011;40925;45.666;18.994;2023-03-01T09:21:08;63.22;;;31.80;;
55025;SDS011;40925;45.666;18.994;2023-03-01T09:23:36;60.80;;;31.83;;
55025;SDS011;40925;45.666;18.994;2023-03-01T09:26:04;59.58;;;31.27;;
55025;SDS011;40925;45.666;18.994;2023-03-01T09:28:31;67.32;;;33.78;;
55025;SDS011;40925;45.666;18.994;2023-03-01T09:30:58;68.75;;;34.63;;
55025;SDS011;40925;45.666;18.994;2023-03-01T09:33:25;63.17;;;32.28;;
55025;SDS011;40925;45.666;18.994;2023-03-01T09:35:59;54.28;;;29.05;;
55025;SDS011;40925;45.666;18.994;2023-03-01T09:38:26;55.13;;;29.27;;
55025;SDS011;40925;45.666;18.994;2023-03-01T09:40:51;56.10;;;30.77;;
55025;SDS011;40925;45.666;18.994;2023-03-01T09:46:18;59.25;;;31.33;;
55025;SDS011;40925;45.666;18.994;2023-03-01T09:51:26;55.20;;;29.77;;
55025;SDS011;40925;45.666;18.994;2023-03-01T09:53:55;55.47;;;29.42;;
55025;SDS011;40925;45.666;18.994;2023-03-01T09:56:32;55.78;;;31.13;;
55025;SDS011;40925;45.666;18.994;2023-03-01T10:02:23;58.22;;;30.65;;
55025;SDS011;40925;45.666;18.994;2023-03-01T10:10:39;58.20;;;29.77;;
55025;SDS011;40925;45.666;18.994;2023-03-01T10:13:17;50.88;;;27.80;;
55025;SDS011;40925;45.666;18.994;2023-03-01T10:15:50;53.80;;;29.65;;
55025;SDS011;40925;45.666;18.994;2023-03-01T10:18:26;54.22;;;29.90;;
55025;SDS011;40925;45.666;18.994;2023-03-01T10:21:01;52.22;;;28.70;;
55025;SDS011;40925;45.666;18.994;2023-03-01T10:23:34;54.67;;;29.33;;
55025;SDS011;40925;45.666;18.994;2023-03-01T10:36:40;51.40;;;28.73;;
55025;SDS011;40925;45.666;18.994;2023-03-01T10:39:12;67.38;;;36.67;;
55025;SDS011;40925;45.666;18.994;2023-03-01T10:41:56;65.05;;;36.28;;
55025;SDS011;40925;45.666;18.994;2023-03-01T10:44:44;53.97;;;32.05;;
55025;SDS011;40925;45.666;18.994;2023-03-01T10:47:23;62.05;;;35.40;;
55025;SDS011;40925;45.666;18.994;2023-03-01T10:50:01;66.25;;;37.25;;
55025;SDS011;40925;45.666;18.994;2023-03-01T10:52:34;63.53;;;34.60;;
55025;SDS011;40925;45.666;18.994;2023-03-01T11:00:46;63.70;;;37.63;;
55025;SDS011;40925;45.666;18.994;2023-03-01T11:03:21;54.67;;;31.95;;
55025;SDS011;40925;45.666;18.994;2023-03-01T11:05:59;53.45;;;29.55;;
55025;SDS011;40925;45.666;18.994;2023-03-01T11:08:41;58.85;;;30.88;;
55025;SDS011;40925;45.666;18.994;2023-03-01T11:13:38;58.22;;;32.38;;
55025;SDS011;40925;45.666;18.994;2023-03-01T11:16:23;51.65;;;29.30;;
55025;SDS011;40925;45.666;18.994;2023-03-01T11:18:58;62.60;;;36.22;;
55025;SDS011;40925;45.666;18.994;2023-03-01T11:21:43;86.63;;;47.47;;
55025;SDS011;40925;45.666;18.994;2023-03-01T11:24:49;68.78;;;36.35;;
55025;SDS011;40925;45.666;18.994;2023-03-01T11:32:36;52.67;;;29.23;;
55025;SDS011;40925;45.666;18.994;2023-03-01T11:40:33;86.00;;;38.72;;
55025;SDS011;40925;45.666;18.994;2023-03-01T11:43:15;62.33;;;32.58;;
55025;SDS011;40925;45.666;18.994;2023-03-01T11:51:18;54.17;;;30.75;;
55025;SDS011;40925;45.666;18.994;2023-03-01T11:53:51;56.55;;;32.60;;
55025;SDS011;40925;45.666;18.994;2023-03-01T11:56:43;60.05;;;33.22;;
55025;SDS011;40925;45.666;18.994;2023-03-01T12:02:21;92.78;;;47.05;;
55025;SDS011;40925;45.666;18.994;2023-03-01T12:10:34;69.10;;;41.03;;
55025;SDS011;40925;45.666;18.994;2023-03-01T12:29:41;70.50;;;39.47;;
55025;SDS011;40925;45.666;18.994;2023-03-01T12:35:07;65.07;;;35.70;;
55025;SDS011;40925;45.666;18.994;2023-03-01T12:46:01;70.90;;;37.65;;
55025;SDS011;40925;45.666;18.994;2023-03-01T12:51:39;68.27;;;36.30;;
55025;SDS011;40925;45.666;18.994;2023-03-01T12:54:26;67.93;;;36.45;;
55025;SDS011;40925;45.666;18.994;2023-03-01T12:57:00;86.88;;;41.95;;
55025;SDS011;40925;45.666;18.994;2023-03-01T13:02:25;70.00;;;36.13;;
55025;SDS011;40925;45.666;18.994;2023-03-01T13:08:05;76.40;;;37.63;;
55025;SDS011;40925;45.666;18.994;2023-03-01T13:10:50;60.00;;;32.20;;
55025;SDS011;40925;45.666;18.994;2023-03-01T13:13:21;67.88;;;37.65;;
55025;SDS011;40925;45.666;18.994;2023-03-01T13:15:49;58.53;;;34.55;;
55025;SDS011;40925;45.666;18.994;2023-03-01T13:20:56;59.70;;;33.20;;
55025;SDS011;40925;45.666;18.994;2023-03-01T13:23:26;61.28;;;33.22;;
55025;SDS011;40925;45.666;18.994;2023-03-01T13:28:46;89.82;;;45.00;;
55025;SDS011;40925;45.666;18.994;2023-03-01T13:36:09;78.10;;;42.30;;
55025;SDS011;40925;45.666;18.994;2023-03-01T13:41:11;88.80;;;47.80;;
55025;SDS011;40925;45.666;18.994;2023-03-01T13:43:42;78.93;;;41.55;;
55025;SDS011;40925;45.666;18.994;2023-03-01T13:46:20;78.05;;;41.78;;
55025;SDS011;40925;45.666;18.994;2023-03-01T13:48:50;81.97;;;42.30;;
55025;SDS011;40925;45.666;18.994;2023-03-01T13:51:23;82.20;;;42.65;;
55025;SDS011;40925;45.666;18.994;2023-03-01T13:53:52;79.75;;;41.63;;
55025;SDS011;40925;45.666;18.994;2023-03-01T13:56:24;79.18;;;40.30;;
55025;SDS011;40925;45.666;18.994;2023-03-01T13:59:02;79.68;;;40.13;;
55025;SDS011;40925;45.666;18.994;2023-03-01T14:01:32;77.82;;;40.80;;
55025;SDS011;40925;45.666;18.994;2023-03-01T14:04:00;80.00;;;41.63;;
55025;SDS011;40925;45.666;18.994;2023-03-01T14:06:31;83.50;;;40.40;;
55025;SDS011;40925;45.666;18.994;2023-03-01T14:09:20;83.03;;;41.08;;
55025;SDS011;40925;45.666;18.994;2023-03-01T14:19:55;89.05;;;44.50;;
55025;SDS011;40925;45.666;18.994;2023-03-01T14:24:59;84.10;;;42.55;;
55025;SDS011;40925;45.666;18.994;2023-03-01T14:27:36;82.80;;;42.03;;
55025;SDS011;40925;45.666;18.994;2023-03-01T14:30:14;77.40;;;41.67;;
55025;SDS011;40925;45.666;18.994;2023-03-01T14:32:57;70.63;;;37.90;;
55025;SDS011;40925;45.666;18.994;2023-03-01T14:35:31;64.50;;;35.35;;
55025;SDS011;40925;45.666;18.994;2023-03-01T14:37:59;61.30;;;33.47;;
55025;SDS011;40925;45.666;18.994;2023-03-01T14:40:27;61.60;;;33.58;;
55025;SDS011;40925;45.666;18.994;2023-03-01T14:42:55;63.85;;;36.10;;
55025;SDS011;40925;45.666;18.994;2023-03-01T14:45:24;60.85;;;35.03;;
55025;SDS011;40925;45.666;18.994;2023-03-01T14:47:51;57.85;;;33.72;;
55025;SDS011;40925;45.666;18.994;2023-03-01T14:50:27;57.70;;;33.20;;
55025;SDS011;40925;45.666;18.994;2023-03-01T14:53:02;64.03;;;35.00;;
55025;SDS011;40925;45.666;18.994;2023-03-01T14:55:37;70.43;;;37.22;;
55025;SDS011;40925;45.666;18.994;2023-03-01T14:58:09;72.28;;;38.72;;
55025;SDS011;40925;45.666;18.994;2023-03-01T15:00:38;68.20;;;36.95;;
55025;SDS011;40925;45.666;18.994;2023-03-01T15:03:13;75.28;;;39.88;;
55025;SDS011;40925;45.666;18.994;2023-03-01T15:05:45;68.57;;;37.88;;
55025;SDS011;40925;45.666;18.994;2023-03-01T15:08:16;66.90;;;37.33;;
55025;SDS011;40925;45.666;18.994;2023-03-01T15:11:05;74.70;;;40.17;;
55025;SDS011;40925;45.666;18.994;2023-03-01T15:13:42;78.20;;;42.15;;
55025;SDS011;40925;45.666;18.994;2023-03-01T15:16:11;90.93;;;46.08;;
55025;SDS011;40925;45.666;18.994;2023-03-01T15:18:56;74.00;;;41.25;;
55025;SDS011;40925;45.666;18.994;2023-03-01T15:26:56;72.47;;;39.20;;
55025;SDS011;40925;45.666;18.994;2023-03-01T15:29:32;79.22;;;42.17;;
55025;SDS011;40925;45.666;18.994;2023-03-01T15:32:27;70.90;;;38.72;;
55025;SDS011;40925;45.666;18.994;2023-03-01T15:34:56;67.68;;;37.85;;
55025;SDS011;40925;45.666;18.994;2023-03-01T15:42:57;68.35;;;38.25;;
55025;SDS011;40925;45.666;18.994;2023-03-01T15:45:25;72.90;;;41.08;;
55025;SDS011;40925;45.666;18.994;2023-03-01T15:47:56;76.65;;;41.25;;
55025;SDS011;40925;45.666;18.994;2023-03-01T15:50:40;77.88;;;42.05;;
55025;SDS011;40925;45.666;18.994;2023-03-01T15:53:10;86.68;;;46.70;;
55025;SDS011;40925;45.666;18.994;2023-03-01T15:55:39;84.80;;;46.72;;
55025;SDS011;40925;45.666;18.994;2023-03-01T16:00:35;73.65;;;42.33;;
55025;SDS011;40925;45.666;18.994;2023-03-01T16:03:00;98.40;;;49.72;;
55025;SDS011;40925;45.666;18.994;2023-03-01T16:05:27;90.95;;;45.65;;
55025;SDS011;40925;45.666;18.994;2023-03-01T16:07:55;120.63;;;60.67;;
55025;SDS011;40925;45.666;18.994;2023-03-01T16:10:22;119.10;;;62.50;;
55025;SDS011;40925;45.666;18.994;2023-03-01T16:12:48;79.68;;;43.75;;
55025;SDS011;40925;45.666;18.994;2023-03-01T16:15:18;74.63;;;41.15;;
55025;SDS011;40925;45.666;18.994;2023-03-01T16:17:48;87.82;;;47.10;;
55025;SDS011;40925;45.666;18.994;2023-03-01T16:20:14;97.68;;;51.70;;
55025;SDS011;40925;45.666;18.994;2023-03-01T16:22:41;86.53;;;46.40;;
55025;SDS011;40925;45.666;18.994;2023-03-01T16:25:09;75.18;;;41.05;;
55025;SDS011;40925;45.666;18.994;2023-03-01T16:31:24;80.72;;;40.75;;
55025;SDS011;40925;45.666;18.994;2023-03-01T16:33:55;86.43;;;43.67;;
55025;SDS011;40925;45.666;18.994;2023-03-01T16:36:23;83.57;;;45.35;;
55025;SDS011;40925;45.666;18.994;2023-03-01T16:38:51;89.35;;;49.60;;
55025;SDS011;40925;45.666;18.994;2023-03-01T16:41:18;97.60;;;51.40;;
55025;SDS011;40925;45.666;18.994;2023-03-01T16:44:03;103.32;;;49.67;;
55025;SDS011;40925;45.666;18.994;2023-03-01T16:46:29;118.13;;;53.88;;
55025;SDS011;40925;45.666;18.994;2023-03-01T16:48:55;149.15;;;61.85;;
55025;SDS011;40925;45.666;18.994;2023-03-01T16:51:21;155.93;;;61.22;;
55025;SDS011;40925;45.666;18.994;2023-03-01T16:53:48;204.05;;;77.00;;
55025;SDS011;40925;45.666;18.994;2023-03-01T16:56:14;266.75;;;105.57;;
55025;SDS011;40925;45.666;18.994;2023-03-01T16:58:41;258.52;;;109.50;;
55025;SDS011;40925;45.666;18.994;2023-03-01T17:01:09;235.23;;;105.80;;
55025;SDS011;40925;45.666;18.994;2023-03-01T17:03:36;204.80;;;102.45;;
55025;SDS011;40925;45.666;18.994;2023-03-01T17:06:04;221.13;;;112.18;;